createdAt,value
2018-05-07T00:01:16.855Z,47.70
2018-05-07T00:03:43.057Z,47.80
2018-05-07T00:06:09.288Z,48.10
2018-05-07T00:08:35.430Z,48.00
2018-05-07T00:11:01.651Z,48.20
2018-05-07T00:13:27.867Z,48.30
2018-05-07T00:15:54.040Z,48.30
2018-05-07T00:18:20.212Z,48.70
2018-05-07T00:20:46.383Z,48.60
2018-05-07T00:23:12.549Z,48.70
2018-05-07T00:25:38.716Z,48.80
2018-05-07T00:28:04.900Z,49.70
2018-05-07T00:30:38.732Z,49.10
2018-05-07T00:33:04.934Z,49.10
2018-05-07T00:35:31.855Z,49.20
2018-05-07T00:37:58.100Z,49.20
2018-05-07T00:40:24.299Z,49.30
2018-05-07T00:42:50.464Z,49.30
2018-05-07T00:45:17.393Z,50.00
2018-05-07T00:47:43.585Z,49.30
2018-05-07T00:50:09.759Z,49.60
2018-05-07T00:52:35.939Z,49.70
2018-05-07T00:55:14.372Z,50.40
2018-05-07T00:57:40.566Z,49.90
2018-05-07T01:00:06.768Z,49.90
2018-05-07T01:02:32.961Z,50.00
2018-05-07T01:04:59.140Z,50.00
2018-05-07T01:07:25.320Z,49.90
2018-05-07T01:09:52.255Z,50.20
2018-05-07T01:12:18.460Z,50.20
2018-05-07T01:14:44.651Z,50.20
2018-05-07T01:17:11.570Z,50.50
2018-05-07T01:19:37.755Z,50.50
2018-05-07T01:22:03.953Z,50.60
2018-05-07T01:24:30.856Z,50.70
2018-05-07T01:26:57.048Z,50.80
2018-05-07T01:29:23.213Z,50.80
2018-05-07T01:31:49.395Z,51.00
2018-05-07T01:34:15.575Z,50.90
2018-05-07T01:36:41.747Z,51.00
2018-05-07T01:39:07.984Z,51.80
2018-05-07T01:41:34.199Z,51.20
2018-05-07T01:44:00.457Z,51.20
2018-05-07T01:46:26.640Z,51.40
2018-05-07T01:48:53.722Z,51.90
2018-05-07T01:51:19.956Z,51.80
2018-05-07T01:53:46.155Z,51.70
2018-05-07T01:56:12.331Z,52.00
2018-05-07T01:58:38.523Z,51.80
2018-05-07T02:01:04.708Z,51.90
2018-05-07T02:03:31.653Z,52.10
2018-05-07T02:05:58.575Z,52.10
2018-05-07T02:08:24.757Z,52.00
2018-05-07T02:10:50.974Z,52.10
2018-05-07T02:13:17.895Z,52.50
2018-05-07T02:15:44.107Z,52.50
2018-05-07T02:18:10.345Z,52.40
2018-05-07T02:20:36.529Z,52.40
2018-05-07T02:23:02.729Z,52.40
2018-05-07T02:25:29.041Z,52.50
2018-05-07T02:27:55.972Z,52.70
2018-05-07T02:30:22.182Z,52.90
2018-05-07T02:32:48.376Z,52.90
2018-05-07T02:35:14.578Z,53.00
2018-05-07T02:37:41.514Z,53.30
2018-05-07T02:40:08.471Z,53.60
2018-05-07T02:42:34.672Z,53.60
2018-05-07T02:45:00.948Z,53.50
2018-05-07T02:47:27.168Z,53.70
2018-05-07T02:49:53.365Z,53.70
2018-05-07T02:52:19.591Z,53.80
2018-05-07T02:54:45.805Z,53.80
2018-05-07T02:57:12.020Z,53.70
2018-05-07T02:59:38.229Z,53.80
2018-05-07T03:02:04.433Z,54.80
2018-05-07T03:04:30.644Z,53.90
2018-05-07T03:06:57.591Z,53.90
2018-05-07T03:09:23.765Z,54.00
2018-05-07T03:11:49.945Z,54.00
2018-05-07T03:14:16.909Z,54.00
2018-05-07T03:16:43.109Z,54.10
2018-05-07T03:19:10.081Z,54.10
2018-05-07T03:21:36.290Z,54.10
2018-05-07T03:24:02.547Z,54.10
2018-05-07T03:26:28.755Z,54.20
2018-05-07T03:28:54.991Z,54.70
2018-05-07T03:31:21.160Z,54.10
2018-05-07T03:33:47.333Z,54.20
2018-05-07T03:36:14.283Z,54.40
2018-05-07T03:38:40.451Z,54.40
2018-05-07T03:41:06.632Z,54.40
2018-05-07T03:43:33.572Z,54.40
2018-05-07T03:46:00.508Z,54.60
2018-05-07T03:48:26.670Z,54.60
2018-05-07T03:50:52.868Z,54.50
2018-05-07T03:53:19.786Z,54.80
2018-05-07T03:55:46.036Z,54.80
2018-05-07T03:58:12.970Z,54.60
2018-05-07T04:00:39.930Z,54.60
2018-05-07T04:03:06.160Z,54.60
2018-05-07T04:05:33.993Z,54.70
2018-05-07T04:08:00.200Z,54.80
2018-05-07T04:10:26.397Z,55.20
2018-05-07T04:12:52.623Z,54.80
2018-05-07T04:15:18.812Z,54.90
2018-05-07T04:17:58.936Z,55.10
2018-05-07T04:20:37.545Z,55.20
2018-05-07T04:23:16.077Z,55.10
2018-05-07T04:25:42.300Z,55.10
2018-05-07T04:28:08.520Z,55.20
2018-05-07T04:30:34.737Z,55.80
2018-05-07T04:33:01.731Z,55.60
2018-05-07T04:35:27.954Z,55.70
2018-05-07T04:37:54.977Z,56.00
2018-05-07T04:40:21.172Z,55.90
2018-05-07T04:42:47.361Z,55.80
2018-05-07T04:45:14.355Z,56.30
2018-05-07T04:47:40.548Z,56.40
2018-05-07T04:50:07.456Z,57.00
2018-05-07T04:52:33.641Z,56.90
2018-05-07T04:54:59.827Z,57.00
2018-05-07T04:57:26.750Z,57.30
2018-05-07T04:59:52.954Z,57.40
2018-05-07T05:02:19.188Z,57.60
2018-05-07T05:04:45.391Z,57.70
2018-05-07T05:07:11.615Z,57.80
2018-05-07T05:09:38.548Z,58.10
2018-05-07T05:12:05.475Z,58.10
2018-05-07T05:14:31.675Z,58.10
2018-05-07T05:16:57.867Z,58.10
2018-05-07T05:19:24.057Z,58.10
2018-05-07T05:21:50.243Z,58.20
2018-05-07T05:24:16.434Z,58.30
2018-05-07T05:26:42.611Z,58.30
2018-05-07T05:29:08.782Z,58.40
2018-05-07T05:31:35.705Z,58.50
2018-05-07T05:34:01.956Z,58.50
2018-05-07T05:36:28.907Z,58.30
2018-05-07T05:38:55.853Z,58.90
2018-05-07T05:41:22.771Z,60.10
2018-05-07T05:43:49.031Z,60.00
2018-05-07T05:46:15.164Z,61.40
2018-05-07T05:48:42.228Z,62.00
2018-05-07T05:51:08.443Z,62.30
2018-05-07T05:53:34.631Z,61.80
2018-05-07T05:56:00.809Z,61.20
2018-05-07T05:58:26.989Z,60.90
2018-05-07T06:00:53.912Z,59.70
2018-05-07T06:03:20.127Z,59.50
2018-05-07T06:05:46.306Z,59.30
2018-05-07T06:08:13.300Z,57.20
2018-05-07T06:10:39.473Z,57.10
2018-05-07T06:13:06.443Z,56.20
2018-05-07T06:15:32.632Z,56.00
2018-05-07T06:17:59.579Z,54.80
2018-05-07T06:20:26.512Z,54.20
2018-05-07T06:22:53.500Z,53.80
2018-05-07T06:25:19.702Z,53.10
2018-05-07T06:27:46.646Z,51.90
2018-05-07T06:33:15.047Z,51.00
2018-05-07T06:35:42.012Z,50.00
2018-05-07T06:38:08.195Z,49.90
2018-05-07T06:40:34.391Z,49.20
2018-05-07T06:43:00.598Z,48.90
2018-05-07T06:45:26.779Z,48.20
2018-05-07T06:47:53.736Z,47.60
2018-05-07T06:50:20.683Z,47.30
2018-05-07T06:52:47.621Z,47.60
2018-05-07T06:55:14.596Z,46.40
2018-05-07T06:57:40.771Z,46.40
2018-05-07T07:00:07.000Z,46.20
2018-05-07T07:02:33.239Z,45.40
2018-05-07T07:04:59.404Z,44.80
2018-05-07T07:07:25.601Z,44.30
2018-05-07T07:09:51.764Z,43.70
2018-05-07T07:12:17.956Z,43.40
2018-05-07T07:14:44.900Z,43.70
2018-05-07T07:17:11.847Z,43.50
2018-05-07T07:19:38.821Z,43.60
2018-05-07T07:22:05.030Z,43.50
2018-05-07T07:24:31.434Z,43.10
2018-05-07T07:26:57.657Z,42.60
2018-05-07T07:29:23.846Z,42.40
2018-05-07T07:31:50.063Z,42.80
2018-05-07T07:34:16.255Z,42.70
2018-05-07T07:36:42.444Z,42.70
2018-05-07T20:10:10.662Z,38.10
2018-05-07T20:12:36.900Z,38.10
2018-05-07T20:15:03.070Z,38.40
2018-05-07T20:17:30.020Z,38.70
2018-05-07T20:19:57.013Z,38.80
2018-05-07T20:22:23.875Z,39.10
2018-05-07T20:24:50.082Z,39.10
2018-05-07T20:27:16.296Z,39.00
2018-05-07T20:29:42.490Z,39.00
2018-05-07T20:32:09.433Z,39.80
2018-05-07T20:34:35.618Z,39.00
2018-05-07T20:37:01.815Z,39.40
2018-05-07T20:39:28.015Z,39.80
2018-05-07T20:41:54.944Z,39.80
2018-05-07T20:44:21.127Z,39.70
2018-05-07T20:46:47.328Z,39.90
2018-05-07T20:49:14.279Z,40.00
2018-05-07T20:51:40.461Z,40.00
2018-05-07T20:54:06.647Z,40.00
2018-05-07T20:56:32.865Z,40.20
2018-05-07T20:58:59.117Z,40.30
2018-05-07T21:01:25.394Z,40.20
2018-05-07T21:03:51.548Z,40.40
2018-05-07T21:06:17.760Z,40.60
2018-05-07T21:08:44.718Z,40.70
2018-05-07T21:11:11.637Z,41.20
2018-05-07T21:13:37.821Z,41.20
2018-05-07T21:16:04.023Z,40.70
2018-05-07T21:18:30.240Z,40.70
2018-05-07T21:20:56.427Z,40.60
2018-05-07T21:23:22.612Z,40.90
2018-05-07T21:25:48.837Z,40.90
2018-05-07T21:28:15.070Z,40.70
2018-05-07T21:30:41.283Z,40.70
2018-05-07T21:33:07.497Z,40.70
2018-05-07T21:35:34.431Z,40.60
2018-05-07T21:38:01.379Z,40.70
2018-05-07T21:40:28.323Z,40.50
2018-05-07T21:42:55.249Z,40.40
2018-05-07T21:45:21.460Z,40.40
2018-05-07T21:47:47.724Z,40.80
2018-05-07T21:50:13.838Z,40.40
2018-05-07T21:52:40.088Z,40.40
2018-05-07T21:55:06.260Z,40.50
2018-05-07T21:57:32.464Z,40.30
2018-05-07T21:59:58.701Z,40.30
2018-05-07T22:02:24.895Z,40.40
2018-05-07T22:04:51.141Z,40.30
2018-05-07T22:07:17.379Z,40.40
2018-05-07T22:09:43.559Z,40.40
2018-05-07T22:12:09.754Z,40.10
2018-05-07T22:14:35.930Z,40.10
2018-05-07T22:17:02.867Z,40.20
2018-05-07T22:19:29.784Z,40.30
2018-05-07T22:21:55.969Z,40.30
2018-05-07T22:24:22.160Z,40.30
2018-05-07T22:26:48.303Z,40.30
2018-05-07T22:29:15.328Z,40.70
2018-05-07T22:31:42.283Z,40.80
2018-05-07T22:34:09.213Z,40.90
2018-05-07T22:36:35.388Z,40.80
2018-05-07T22:39:01.626Z,40.80
2018-05-07T22:41:27.779Z,40.80
2018-05-07T22:43:54.001Z,40.90
2018-05-07T22:46:20.324Z,41.10
2018-05-07T22:48:46.372Z,41.20
2018-05-07T22:51:12.563Z,41.30
2018-05-07T22:53:38.775Z,41.30
2018-05-07T22:56:04.959Z,41.30
2018-05-07T22:58:31.919Z,41.50
2018-05-07T23:00:58.864Z,41.60
2018-05-07T23:03:25.846Z,41.70
2018-05-07T23:05:52.039Z,41.70
2018-05-07T23:08:18.231Z,41.80
2018-05-07T23:10:44.441Z,41.80
2018-05-07T23:13:10.634Z,41.90
2018-05-07T23:15:36.835Z,41.90
2018-05-07T23:18:03.759Z,42.10
2018-05-07T23:20:29.955Z,42.00
2018-05-07T23:22:56.185Z,42.10
2018-05-07T23:25:22.367Z,42.10
2018-05-07T23:27:49.277Z,42.50
2018-05-07T23:30:16.943Z,42.70
2018-05-07T23:32:43.127Z,42.60
2018-05-07T23:35:09.303Z,42.60
2018-05-07T23:37:35.492Z,42.60
2018-05-07T23:40:01.699Z,42.90
2018-05-07T23:42:27.909Z,42.90
2018-05-07T23:44:54.083Z,43.10
2018-05-07T23:47:20.264Z,43.30
2018-05-07T23:49:47.183Z,43.50
2018-05-07T23:52:13.368Z,43.40
2018-05-07T23:54:39.548Z,43.60
2018-05-07T23:57:05.731Z,43.70
2018-05-07T23:59:31.900Z,44.00
